Time;durP1;ratioP1;P1;durP2;ratioP2;P2;SDS_P1;SDS_P2;PMS_P1;PMS_P2;Temp;Humidity;BMP_temperature;BMP_pressure;BME280_temperature;BME280_humidity;BME280_pressure;Samples;Min_cycle;Max_cycle;Signal;HPM_P1;HPM_P2
2022/03/29 00:00:38;;;;;;;34.20;13.48;;;;;;;2.67;100.00;101120.63;4930404;29;20047;-75
2022/03/29 00:03:05;;;;;;;41.15;14.50;;;;;;;2.95;100.00;101137.13;4931653;28;20486;-75
2022/03/29 00:05:31;;;;;;;37.90;14.88;;;;;;;3.02;100.00;101146.34;4940118;28;20035;-75
2022/03/29 00:07:56;;;;;;;42.28;13.52;;;;;;;2.93;100.00;101142.56;4940066;28;20027;-74
2022/03/29 00:10:23;;;;;;;37.88;13.75;;;;;;;2.81;100.00;101138.19;4942112;28;20106;-75
2022/03/29 00:12:53;;;;;;;38.60;14.85;;;;;;;2.72;100.00;101141.53;4947778;28;20027;-76
2022/03/29 00:15:22;;;;;;;37.15;13.77;;;;;;;2.64;100.00;101140.28;4948696;28;20081;-75
2022/03/29 00:17:48;;;;;;;36.97;13.57;;;;;;;2.59;100.00;101131.84;4954142;28;20043;-76
2022/03/29 00:20:17;;;;;;;43.10;15.73;;;;;;;2.57;100.00;101131.13;4915108;29;20049;-76
2022/03/29 00:22:43;;;;;;;39.03;13.90;;;;;;;2.56;100.00;101132.06;4950916;28;20043;-77
2022/03/29 00:25:10;;;;;;;37.95;14.02;;;;;;;2.56;100.00;101137.38;4970767;28;20034;-76
2022/03/29 00:27:37;;;;;;;44.92;15.40;;;;;;;2.60;100.00;101140.66;4943187;28;20042;-75
2022/03/29 00:30:03;;;;;;;39.80;15.20;;;;;;;2.60;100.00;101132.69;4943205;28;20105;-76
2022/03/29 00:32:29;;;;;;;41.58;13.50;;;;;;;2.66;100.00;101129.56;4951464;28;20537;-76
2022/03/29 00:34:55;;;;;;;40.97;14.32;;;;;;;2.75;100.00;101125.38;4918629;28;20039;-74
2022/03/29 00:37:20;;;;;;;43.97;15.77;;;;;;;2.89;100.00;101127.00;4932639;29;20081;-75
2022/03/29 00:39:46;;;;;;;43.65;16.27;;;;;;;2.99;100.00;101122.66;4953161;28;20024;-76
2022/03/29 00:42:11;;;;;;;45.13;15.02;;;;;;;3.06;100.00;101122.06;4957584;28;20045;-74
2022/03/29 00:44:38;;;;;;;43.33;15.95;;;;;;;3.11;100.00;101127.03;4923162;29;20109;-77
2022/03/29 00:47:05;;;;;;;54.45;16.83;;;;;;;2.97;100.00;101093.56;4951996;28;20123;-77
2022/03/29 00:49:31;;;;;;;54.58;18.20;;;;;;;3.20;100.00;101117.47;4950321;28;20070;-74
2022/03/29 00:52:00;;;;;;;51.92;17.08;;;;;;;3.20;100.00;101118.34;4949295;28;20537;-76
2022/03/29 00:54:30;;;;;;;32.17;11.88;;;;;;;3.22;100.00;101108.44;4951148;28;20066;-76
2022/03/29 00:57:00;;;;;;;48.25;17.05;;;;;;;3.32;100.00;101121.84;4951152;28;20059;-75
2022/03/29 00:59:27;;;;;;;45.03;15.43;;;;;;;3.30;100.00;101119.31;4916996;29;20122;-76
2022/03/29 01:01:54;;;;;;;46.20;17.52;;;;;;;3.25;100.00;101117.97;4931988;28;20039;-77
2022/03/29 01:04:22;;;;;;;49.08;16.95;;;;;;;3.21;100.00;101116.53;4949608;28;20035;-75
2022/03/29 01:06:48;;;;;;;52.35;19.02;;;;;;;3.08;100.00;101119.28;4938657;28;20035;-76
2022/03/29 01:09:14;;;;;;;55.08;18.92;;;;;;;3.02;100.00;101112.66;4923116;28;20057;-75
2022/03/29 01:11:39;;;;;;;53.00;18.60;;;;;;;2.98;100.00;101113.84;4920032;29;20070;-76
2022/03/29 01:14:05;;;;;;;57.65;19.25;;;;;;;2.99;100.00;101114.69;4957585;28;20035;-76
2022/03/29 01:19:21;;;;;;;55.90;19.55;;;;;;;3.05;100.00;101108.91;4937961;28;20039;-76
2022/03/29 01:22:02;;;;;;;56.95;20.02;;;;;;;2.96;100.00;101109.59;4948965;28;20038;-75
2022/03/29 01:24:28;;;;;;;58.83;18.92;;;;;;;2.82;100.00;101103.53;4950009;28;20111;-75
2022/03/29 01:26:59;;;;;;;57.53;19.65;;;;;;;2.76;100.00;101097.88;4950500;28;20048;-75
2022/03/29 01:29:26;;;;;;;69.82;21.88;;;;;;;2.67;100.00;101093.25;4945621;28;20046;-76
2022/03/29 01:31:52;;;;;;;52.65;19.83;;;;;;;2.64;100.00;101095.16;4944814;28;20075;-75
2022/03/29 01:34:19;;;;;;;62.15;20.13;;;;;;;2.60;100.00;101104.34;4940857;28;20035;-76
2022/03/29 01:36:45;;;;;;;62.10;21.63;;;;;;;2.54;100.00;101094.19;4929224;29;20114;-75
2022/03/29 01:39:10;;;;;;;59.10;18.33;;;;;;;2.52;100.00;101101.41;4953742;28;20061;-76
2022/03/29 01:41:38;;;;;;;59.42;19.33;;;;;;;2.54;100.00;101099.50;4949648;28;20063;-75
2022/03/29 01:44:06;;;;;;;70.90;20.33;;;;;;;2.62;100.00;101091.81;4918542;28;20043;-74
2022/03/29 01:46:31;;;;;;;60.92;20.40;;;;;;;2.73;100.00;101100.75;4962286;28;20447;-76
2022/03/29 01:48:58;;;;;;;54.95;19.40;;;;;;;2.70;100.00;101091.22;4950468;28;20118;-76
2022/03/29 01:51:23;;;;;;;69.72;20.70;;;;;;;2.73;100.00;101093.63;4954801;28;20363;-75
2022/03/29 01:53:54;;;;;;;59.28;20.23;;;;;;;2.76;100.00;101089.91;4935031;29;20399;-75
2022/03/29 01:56:20;;;;;;;56.60;18.55;;;;;;;2.83;100.00;101088.44;4951844;28;20057;-76
2022/03/29 01:58:45;;;;;;;59.95;19.15;;;;;;;2.85;100.00;101083.88;4950789;28;20390;-75
2022/03/29 02:01:12;;;;;;;55.45;19.42;;;;;;;2.89;100.00;101095.13;4944661;28;20455;-76
2022/03/29 02:03:38;;;;;;;53.47;18.67;;;;;;;2.87;100.00;101092.56;4948692;28;20111;-75
2022/03/29 02:06:04;;;;;;;58.47;18.17;;;;;;;2.81;100.00;101090.41;4934121;28;20155;-75
2022/03/29 02:08:29;;;;;;;68.68;19.65;;;;;;;2.81;100.00;101079.78;4950370;28;20039;-75
2022/03/29 02:10:55;;;;;;;52.40;17.10;;;;;;;2.82;100.00;101079.63;4951596;28;20038;-76
2022/03/29 02:13:21;;;;;;;52.50;17.95;;;;;;;2.71;100.00;101081.44;4933174;29;20035;-75
2022/03/29 02:15:47;;;;;;;55.75;18.50;;;;;;;2.67;100.00;101083.47;4950156;28;20070;-76
2022/03/29 02:18:12;;;;;;;53.90;18.30;;;;;;;2.58;100.00;101078.88;4938518;28;20145;-75
2022/03/29 02:20:38;;;;;;;54.20;17.45;;;;;;;2.45;100.00;101086.91;4913329;29;20054;-76
2022/03/29 02:23:06;;;;;;;65.68;17.95;;;;;;;2.27;100.00;101075.00;4926493;28;20035;-75
2022/03/29 02:25:32;;;;;;;53.45;15.32;;;;;;;2.26;100.00;101087.44;4952801;28;20039;-75
2022/03/29 02:27:58;;;;;;;54.53;16.75;;;;;;;2.09;100.00;101054.22;4949902;28;20043;-75
2022/03/29 02:30:24;;;;;;;57.80;17.45;;;;;;;2.16;100.00;101063.38;4944804;28;20124;-76
2022/03/29 02:32:50;;;;;;;62.85;18.27;;;;;;;2.13;100.00;101068.09;4949305;28;20023;-75
2022/03/29 02:35:16;;;;;;;56.42;17.17;;;;;;;2.06;100.00;101067.69;4940812;28;20659;-75
2022/03/29 02:37:42;;;;;;;54.08;17.63;;;;;;;2.02;100.00;101070.69;4929737;29;20478;-75
2022/03/29 02:40:09;;;;;;;63.15;19.27;;;;;;;1.97;100.00;101066.56;4922175;28;20379;-76
2022/03/29 02:42:46;;;;;;;66.75;19.42;;;;;;;1.90;100.00;101049.38;4939614;29;20039;-75
2022/03/29 02:45:14;;;;;;;69.72;19.85;;;;;;;1.98;100.00;101067.41;4930799;28;20026;-75
2022/03/29 02:47:42;;;;;;;51.53;16.52;;;;;;;1.92;100.00;101066.03;4951647;28;20039;-75
2022/03/29 02:50:08;;;;;;;50.85;16.40;;;;;;;1.79;100.00;101057.28;4947172;28;20345;-75
2022/03/29 02:52:33;;;;;;;49.47;16.52;;;;;;;1.63;100.00;101054.91;4950472;28;20045;-76
2022/03/29 02:55:01;;;;;;;53.08;15.93;;;;;;;1.40;100.00;101032.72;4916799;28;20047;-76
2022/03/29 02:57:27;;;;;;;58.22;15.70;;;;;;;1.40;100.00;101048.59;4950459;28;20029;-75
2022/03/29 02:59:53;;;;;;;52.13;15.70;;;;;;;1.34;100.00;101042.91;4917758;29;20053;-75
2022/03/29 03:02:18;;;;;;;46.75;14.77;;;;;;;1.33;100.00;101039.41;4928782;28;20030;-75
2022/03/29 03:04:44;;;;;;;44.28;14.00;;;;;;;1.39;100.00;101049.56;4943717;28;20042;-75
2022/03/29 03:07:09;;;;;;;48.67;14.93;;;;;;;1.38;100.00;101047.06;4935821;28;20046;-76
2022/03/29 03:09:35;;;;;;;52.88;16.70;;;;;;;1.33;100.00;101043.88;4937334;29;20035;-75
2022/03/29 03:12:00;;;;;;;60.75;18.10;;;;;;;1.29;100.00;101044.06;4951754;28;20483;-76
2022/03/29 03:14:26;;;;;;;52.03;15.90;;;;;;;1.21;100.00;101042.94;4934700;29;20372;-75
2022/03/29 03:16:52;;;;;;;48.50;15.00;;;;;;;1.19;100.00;101036.88;4954224;28;20039;-75
2022/03/29 03:19:18;;;;;;;55.22;16.33;;;;;;;1.14;100.00;101036.38;4936580;29;20142;-76
2022/03/29 03:21:44;;;;;;;69.65;19.08;;;;;;;1.10;100.00;101035.75;4950749;28;20055;-77
2022/03/29 03:24:09;;;;;;;59.65;16.60;;;;;;;1.15;100.00;101036.25;4945931;28;20286;-75
2022/03/29 03:26:35;;;;;;;58.72;18.20;;;;;;;1.09;100.00;101028.75;4915743;29;20782;-76
2022/03/29 03:29:01;;;;;;;52.47;17.10;;;;;;;1.25;100.00;101033.81;4953636;28;20055;-76
2022/03/29 03:31:26;;;;;;;65.03;17.25;;;;;;;1.22;100.00;101021.66;4947101;28;20082;-76
2022/03/29 03:33:52;;;;;;;56.08;18.95;;;;;;;1.40;100.00;101031.88;4948961;28;20660;-76
2022/03/29 03:36:17;;;;;;;54.05;16.65;;;;;;;1.49;100.00;101031.22;4947855;28;20047;-76
2022/03/29 03:38:43;;;;;;;47.10;16.45;;;;;;;1.59;100.00;101028.72;4925042;29;20097;-77
2022/03/29 03:41:09;;;;;;;60.65;16.55;;;;;;;1.62;100.00;101021.41;4944854;28;20031;-75
2022/03/29 03:43:34;;;;;;;56.42;15.85;;;;;;;1.59;100.00;101023.44;4949345;28;20549;-75
2022/03/29 03:46:00;;;;;;;49.47;14.68;;;;;;;1.52;100.00;101025.69;4939475;28;20035;-76
2022/03/29 03:48:26;;;;;;;53.15;16.40;;;;;;;1.43;100.00;101021.91;4954024;28;20414;-75
2022/03/29 03:50:52;;;;;;;56.75;16.20;;;;;;;1.39;100.00;101016.94;4932963;28;20063;-75
2022/03/29 03:53:17;;;;;;;63.35;16.05;;;;;;;1.44;100.00;101025.41;4951467;28;20098;-75
2022/03/29 03:55:43;;;;;;;69.65;18.08;;;;;;;1.48;100.00;101025.09;4921653;29;20483;-76
2022/03/29 03:58:08;;;;;;;60.13;16.85;;;;;;;1.44;100.00;101002.41;4950349;28;20615;-75
2022/03/29 04:00:34;;;;;;;71.95;21.35;;;;;;;1.58;100.00;101013.78;4946460;28;20486;-76
2022/03/29 04:03:01;;;;;;;58.20;17.65;;;;;;;1.68;100.00;101020.97;4951965;28;20451;-76
2022/03/29 04:05:27;;;;;;;78.47;21.75;;;;;;;1.76;100.00;101005.34;4919310;28;20047;-75
2022/03/29 04:07:53;;;;;;;72.63;19.05;;;;;;;1.78;100.00;101001.75;4946535;28;20034;-75
2022/03/29 04:10:19;;;;;;;67.85;18.95;;;;;;;1.83;100.00;101007.56;4949341;28;20043;-76
2022/03/29 04:12:47;;;;;;;58.65;15.80;;;;;;;1.83;100.00;101004.91;4954420;28;20035;-76
2022/03/29 04:15:12;;;;;;;60.58;18.42;;;;;;;1.76;100.00;100996.53;4933364;28;20030;-75
2022/03/29 04:17:38;;;;;;;53.75;16.27;;;;;;;1.73;100.00;101002.09;4916022;29;20043;-76
2022/03/29 04:20:05;;;;;;;57.05;15.60;;;;;;;1.65;100.00;100993.84;4921634;28;20043;-76
2022/03/29 04:22:30;;;;;;;44.97;15.27;;;;;;;1.61;100.00;101002.97;4952045;28;20159;-76
2022/03/29 04:24:56;;;;;;;53.50;16.00;;;;;;;1.50;100.00;100990.50;4931895;28;20529;-77
2022/03/29 04:27:22;;;;;;;58.63;15.90;;;;;;;1.47;100.00;100991.56;4962447;28;20420;-76
2022/03/29 04:29:47;;;;;;;48.47;15.50;;;;;;;1.42;100.00;100987.56;4925237;29;20463;-75
2022/03/29 04:32:13;;;;;;;47.30;14.98;;;;;;;1.41;100.00;100988.53;4913319;28;20593;-75
2022/03/29 04:34:40;;;;;;;50.78;16.00;;;;;;;1.38;100.00;100980.81;4951838;28;20376;-75
2022/03/29 04:37:05;;;;;;;46.67;14.60;;;;;;;1.41;100.00;100973.47;4948683;28;20047;-75
2022/03/29 04:39:33;;;;;;;53.88;16.15;;;;;;;1.44;100.00;100975.06;4933548;29;20035;-75
2022/03/29 04:41:59;;;;;;;45.92;16.17;;;;;;;1.45;100.00;100976.75;4911723;28;20039;-76
2022/03/29 04:44:25;;;;;;;41.53;13.52;;;;;;;1.39;100.00;100969.25;4956130;28;20086;-75
2022/03/29 04:46:50;;;;;;;43.25;13.27;;;;;;;1.26;100.00;100946.28;4929736;29;20467;-76
2022/03/29 04:49:16;;;;;;;49.03;13.85;;;;;;;1.34;100.00;100963.44;4926557;29;20083;-75
2022/03/29 04:51:41;;;;;;;46.90;14.85;;;;;;;1.26;100.00;100967.47;4923608;28;20422;-77
2022/03/29 04:54:07;;;;;;;48.95;14.65;;;;;;;1.11;100.00;100955.31;4963380;28;20074;-76
2022/03/29 04:56:33;;;;;;;40.45;14.50;;;;;;;0.93;100.00;100936.31;4945563;28;20035;-75
2022/03/29 04:58:58;;;;;;;45.90;13.48;;;;;;;0.82;100.00;100947.69;4946838;28;20049;-76
2022/03/29 05:01:24;;;;;;;28.88;10.05;;;;;;;0.70;100.00;100939.75;4918965;29;20031;-76
2022/03/29 05:03:50;;;;;;;39.75;12.02;;;;;;;0.71;100.00;100936.13;4915104;28;20122;-76
2022/03/29 05:06:15;;;;;;;32.47;12.52;;;;;;;0.77;100.00;100947.16;4949195;28;20502;-75
2022/03/29 05:08:41;;;;;;;38.05;12.38;;;;;;;0.62;100.00;100930.53;4942543;28;20042;-75
2022/03/29 05:11:07;;;;;;;38.60;12.43;;;;;;;0.64;100.00;100944.53;4957225;28;20468;-75
2022/03/29 05:13:33;;;;;;;41.45;12.95;;;;;;;0.53;100.00;100920.63;4921863;29;20442;-76
2022/03/29 05:15:59;;;;;;;31.50;10.70;;;;;;;0.74;100.00;100951.78;4947779;28;20043;-76
2022/03/29 05:18:24;;;;;;;42.40;13.68;;;;;;;0.83;100.00;100943.22;4915760;29;20035;-76
2022/03/29 05:20:50;;;;;;;27.38;8.75;;;;;;;0.95;100.00;100944.97;4948754;28;20487;-76
2022/03/29 05:23:16;;;;;;;30.65;12.35;;;;;;;1.08;100.00;100948.44;4966142;28;20035;-75
2022/03/29 05:25:42;;;;;;;39.00;12.85;;;;;;;1.10;100.00;100943.06;4934428;29;20390;-75
2022/03/29 05:28:09;;;;;;;42.22;14.00;;;;;;;0.96;100.00;100946.69;4954793;28;20042;-77
2022/03/29 05:30:35;;;;;;;29.35;11.63;;;;;;;0.92;100.00;100941.72;4948350;28;20553;-75
2022/03/29 05:33:01;;;;;;;35.55;12.65;;;;;;;0.87;100.00;100950.84;4951048;28;20035;-75
2022/03/29 05:35:33;;;;;;;30.27;12.02;;;;;;;0.90;100.00;100943.63;4950702;28;20414;-76
2022/03/29 05:38:01;;;;;;;36.05;10.68;;;;;;;0.99;100.00;100945.63;4944889;28;20070;-77
2022/03/29 05:40:28;;;;;;;27.48;10.32;;;;;;;1.02;100.00;100948.06;4936796;28;20097;-76
2022/03/29 05:42:54;;;;;;;26.60;9.15;;;;;;;0.91;100.00;100951.47;4954981;28;20094;-76
2022/03/29 05:45:20;;;;;;;29.52;9.38;;;;;;;0.68;100.00;100954.88;4947588;28;20050;-75
2022/03/29 05:50:31;;;;;;;22.83;7.93;;;;;;;0.32;100.00;100956.47;4929995;28;20125;-76
2022/03/29 05:52:57;;;;;;;20.40;7.55;;;;;;;0.14;100.00;100950.66;4951766;28;20118;-77
2022/03/29 05:55:24;;;;;;;19.02;9.05;;;;;;;0.06;100.00;100953.81;4939889;28;20031;-76
2022/03/29 05:57:49;;;;;;;22.95;8.73;;;;;;;-0.05;100.00;100953.69;4941086;28;20043;-75
2022/03/29 06:00:16;;;;;;;20.83;9.40;;;;;;;-0.15;100.00;100950.81;4943613;28;20471;-76
2022/03/29 06:02:42;;;;;;;23.95;8.25;;;;;;;-0.13;100.00;100954.19;4942280;28;20057;-76
2022/03/29 06:05:09;;;;;;;26.52;9.80;;;;;;;-0.09;100.00;100955.69;4945413;28;21776;-76
2022/03/29 06:07:35;;;;;;;20.30;9.70;;;;;;;-0.10;100.00;100953.16;4924100;29;20047;-76
2022/03/29 06:10:03;;;;;;;22.23;8.48;;;;;;;-0.15;100.00;100955.25;4941253;28;20031;-75
2022/03/29 06:12:30;;;;;;;25.15;10.25;;;;;;;-0.09;100.00;100958.31;4953864;28;20055;-75
2022/03/29 06:14:55;;;;;;;23.75;9.57;;;;;;;0.16;100.00;100965.47;4937815;28;20035;-75
2022/03/29 06:17:21;;;;;;;23.75;9.77;;;;;;;0.12;100.00;100953.38;4933951;29;20383;-75
2022/03/29 06:19:48;;;;;;;22.63;9.43;;;;;;;0.05;100.00;100967.13;4920400;29;20043;-75
2022/03/29 06:22:13;;;;;;;31.20;9.18;;;;;;;-0.22;100.00;100938.94;4929088;28;20055;-75
2022/03/29 06:24:40;;;;;;;26.75;9.18;;;;;;;-0.01;100.00;100969.22;4955986;28;20500;-75
2022/03/29 06:27:06;;;;;;;24.55;9.32;;;;;;;-0.03;100.00;100963.22;4935468;28;20102;-76
2022/03/29 06:29:34;;;;;;;22.17;8.55;;;;;;;-0.07;100.00;100953.78;4949820;28;20040;-75
2022/03/29 06:32:00;;;;;;;25.27;9.57;;;;;;;0.12;100.00;100974.53;4933858;28;20035;-75
2022/03/29 06:34:26;;;;;;;23.58;9.85;;;;;;;0.17;100.00;100977.72;4947245;28;20035;-77
2022/03/29 06:36:52;;;;;;;25.35;10.68;;;;;;;0.25;100.00;100977.22;4937009;28;20046;-75
2022/03/29 06:39:18;;;;;;;23.98;9.48;;;;;;;0.37;100.00;100980.81;4933658;29;20075;-76
2022/03/29 06:41:44;;;;;;;27.63;10.00;;;;;;;0.44;100.00;100977.63;4930025;29;20047;-75
2022/03/29 06:44:10;;;;;;;24.75;9.68;;;;;;;0.54;100.00;100974.38;4918575;28;20039;-76
2022/03/29 06:46:37;;;;;;;21.17;8.45;;;;;;;0.60;100.00;100976.59;4948973;28;20035;-75
2022/03/29 06:49:04;;;;;;;24.88;10.30;;;;;;;0.49;100.00;100957.97;4919724;28;20046;-75
2022/03/29 06:51:30;;;;;;;23.38;9.48;;;;;;;0.67;100.00;100974.38;4950624;28;20038;-75
2022/03/29 06:53:57;;;;;;;20.05;9.10;;;;;;;0.69;100.00;100975.97;4950930;28;20039;-75
2022/03/29 06:56:22;;;;;;;23.55;9.13;;;;;;;0.74;100.00;100970.31;4936100;29;20035;-75
2022/03/29 06:58:48;;;;;;;24.98;8.98;;;;;;;0.88;100.00;100973.72;4919385;29;20202;-77
2022/03/29 07:01:16;;;;;;;20.60;8.20;;;;;;;1.05;100.00;100964.56;4918753;28;20407;-76
2022/03/29 07:03:44;;;;;;;19.77;8.43;;;;;;;1.29;100.00;100980.50;4934960;29;20039;-75
2022/03/29 07:06:09;;;;;;;28.00;9.40;;;;;;;1.38;100.00;100972.88;4917952;28;20051;-76
2022/03/29 07:08:36;;;;;;;17.38;8.18;;;;;;;1.60;100.00;100983.56;4948332;28;20042;-75
2022/03/29 07:11:19;;;;;;;8.02;4.57;;;;;;;1.96;100.00;100995.09;4919512;28;20035;-75
2022/03/29 07:13:45;;;;;;;;;;;;;;;2.42;100.00;100999.56;4933725;29;20042;-75
2022/03/29 07:16:14;;;;;;;23.63;9.52;;;;;;;2.72;100.00;100980.41;4919013;28;19926;-76
2022/03/29 07:18:40;;;;;;;21.05;9.65;;;;;;;3.01;100.00;100991.41;4936726;29;20956;-76
2022/03/29 07:21:07;;;;;;;25.95;10.18;;;;;;;3.14;100.00;100988.63;4918033;28;20039;-77
2022/03/29 07:23:32;;;;;;;23.73;10.75;;;;;;;3.35;100.00;100988.72;4918204;29;20106;-75
2022/03/29 07:25:58;;;;;;;25.60;11.45;;;;;;;3.41;100.00;100982.06;4919306;28;20043;-77
2022/03/29 07:28:24;;;;;;;22.25;10.15;;;;;;;3.71;100.00;100992.88;4948734;28;20778;-75
2022/03/29 07:30:51;;;;;;;27.45;12.20;;;;;;;4.10;100.00;100993.22;4945790;28;20143;-75
2022/03/29 07:33:17;;;;;;;21.23;10.45;;;;;;;4.74;100.00;100989.56;4948755;28;20094;-77
2022/03/29 07:35:44;;;;;;;28.75;11.50;;;;;;;5.41;100.00;100984.59;4950897;28;20035;-76
2022/03/29 07:38:10;;;;;;;26.23;11.07;;;;;;;5.86;99.23;100992.13;4950750;28;20049;-76
2022/03/29 07:40:37;;;;;;;27.40;13.13;;;;;;;6.30;97.82;101000.59;4945443;28;20043;-78
2022/03/29 07:43:04;;;;;;;25.15;11.52;;;;;;;7.29;95.43;100989.44;4937144;28;20040;-75
2022/03/29 07:45:30;;;;;;;24.35;11.35;;;;;;;8.61;89.60;101000.44;4935873;29;20043;-76
2022/03/29 07:47:57;;;;;;;22.67;10.35;;;;;;;9.50;84.87;101005.44;4934917;28;20027;-77
2022/03/29 07:50:24;;;;;;;22.15;11.00;;;;;;;10.28;82.72;101001.53;4951047;28;20094;-76
2022/03/29 07:52:50;;;;;;;26.00;10.88;;;;;;;10.63;78.98;100964.53;4919347;28;20259;-76
2022/03/29 07:55:16;;;;;;;22.40;10.32;;;;;;;11.24;76.64;100998.00;4952530;28;20043;-76
2022/03/29 07:57:43;;;;;;;22.60;11.63;;;;;;;11.49;74.60;100995.22;4935874;29;20266;-76
2022/03/29 08:02:55;;;;;;;24.73;10.52;;;;;;;12.06;72.60;100981.41;4938578;29;20094;-76
2022/03/29 08:05:22;;;;;;;27.52;12.60;;;;;;;12.52;71.37;100978.66;4934120;29;20035;-76
2022/03/29 08:07:48;;;;;;;22.80;11.57;;;;;;;13.05;69.57;100973.22;4948601;28;20055;-76
2022/03/29 08:10:13;;;;;;;24.65;12.23;;;;;;;13.54;67.89;100973.44;4924872;28;20449;-76
2022/03/29 08:12:40;;;;;;;24.05;11.90;;;;;;;14.00;66.63;100965.00;4949859;28;20031;-76
2022/03/29 08:15:07;;;;;;;25.17;11.18;;;;;;;14.65;63.04;100976.59;4934493;29;20038;-76
2022/03/29 08:17:33;;;;;;;26.08;13.65;;;;;;;15.24;61.43;100971.72;4946290;29;20063;-76
2022/03/29 08:20:00;;;;;;;29.70;13.48;;;;;;;15.58;59.41;100977.06;4948662;28;20498;-76
2022/03/29 08:22:26;;;;;;;29.83;14.85;;;;;;;15.74;57.97;100970.47;4919471;29;20027;-80
2022/03/29 08:24:52;;;;;;;28.88;13.98;;;;;;;15.75;57.42;100963.19;4932601;29;20042;-79
2022/03/29 08:27:18;;;;;;;29.27;14.50;;;;;;;15.96;56.53;100963.03;4929153;29;20027;-79
2022/03/29 08:29:43;;;;;;;26.77;13.68;;;;;;;16.27;56.41;100965.16;4973551;28;20049;-79
2022/03/29 08:32:09;;;;;;;25.65;13.48;;;;;;;16.67;56.17;100956.13;4964828;28;20101;-80
2022/03/29 08:34:35;;;;;;;27.30;12.95;;;;;;;17.25;52.82;100966.25;4951325;28;20050;-80
2022/03/29 08:37:01;;;;;;;30.17;14.05;;;;;;;17.41;51.69;100951.34;4927471;29;20089;-79
2022/03/29 08:39:26;;;;;;;30.05;16.30;;;;;;;17.79;51.75;100962.25;4918935;29;20043;-79
2022/03/29 08:42:03;;;;;;;33.75;15.43;;;;;;;18.37;49.08;100962.06;4944229;29;20479;-80
2022/03/29 08:44:29;;;;;;;26.35;12.00;;;;;;;18.77;47.60;100958.16;4946033;29;20035;-79
2022/03/29 08:46:55;;;;;;;32.95;16.13;;;;;;;19.17;45.80;100960.44;4936263;29;20031;-79
2022/03/29 08:49:21;;;;;;;32.35;15.55;;;;;;;19.49;46.22;100959.19;4928685;29;20034;-79
2022/03/29 08:51:47;;;;;;;31.27;16.00;;;;;;;19.96;44.51;100964.84;4944414;29;20039;-79
2022/03/29 08:54:14;;;;;;;29.83;16.55;;;;;;;20.19;45.11;100953.16;4945361;29;20028;-79
2022/03/29 08:56:40;;;;;;;30.73;15.50;;;;;;;20.52;43.23;100957.22;4939962;29;20040;-80
2022/03/29 08:59:08;;;;;;;29.35;16.30;;;;;;;20.89;43.04;100962.47;4949820;28;20050;-79
2022/03/29 09:01:36;;;;;;;29.98;15.13;;;;;;;21.48;41.82;100949.50;4951416;28;20046;-80
2022/03/29 09:04:13;;;;;;;36.10;17.25;;;;;;;21.81;39.65;100958.91;4931455;29;20035;-81
2022/03/29 09:06:54;;;;;;;29.00;16.23;;;;;;;22.07;38.43;100953.88;4949253;28;20035;-82
2022/03/29 09:09:31;;;;;;;33.55;17.60;;;;;;;21.98;38.39;100947.16;4952780;28;20035;-79
2022/03/29 09:11:59;;;;;;;29.25;16.10;;;;;;;21.92;37.97;100946.25;4926145;29;20048;-79
2022/03/29 09:14:29;;;;;;;37.75;17.15;;;;;;;21.57;37.16;100933.56;4942928;29;20535;-80
2022/03/29 09:16:54;;;;;;;32.97;17.20;;;;;;;21.42;38.80;100942.28;4913927;29;20042;-79
2022/03/29 09:19:23;;;;;;;32.72;17.92;;;;;;;21.54;36.79;100946.88;4917336;29;20039;-80
2022/03/29 09:21:51;;;;;;;32.40;16.20;;;;;;;21.40;36.59;100940.88;4944100;29;20098;-79
2022/03/29 09:24:18;;;;;;;38.72;19.23;;;;;;;21.43;36.90;100937.66;4949120;29;20471;-79
2022/03/29 09:26:49;;;;;;;32.00;17.85;;;;;;;21.38;36.98;100935.66;4932804;29;20042;-79
2022/03/29 09:29:20;;;;;;;29.83;14.05;;;;;;;21.83;36.79;100934.88;4941933;29;20035;-80
2022/03/29 09:31:58;;;;;;;34.97;19.38;;;;;;;22.16;36.89;100925.00;4936608;29;20038;-81
2022/03/29 09:34:24;;;;;;;33.50;16.02;;;;;;;22.80;34.43;100921.88;4932987;29;20031;-79
2022/03/29 09:36:52;;;;;;;35.03;18.17;;;;;;;22.34;34.58;100929.44;4916725;29;20391;-79
2022/03/29 09:39:39;;;;;;;31.55;16.42;;;;;;;22.12;34.30;100926.56;4913007;29;20035;-79
2022/03/29 09:42:11;;;;;;;37.17;19.70;;;;;;;21.98;35.72;100914.31;4918998;29;20043;-79
2022/03/29 09:44:43;;;;;;;38.42;17.55;;;;;;;22.38;35.09;100925.94;4915698;29;20461;-80
2022/03/29 09:47:12;;;;;;;32.17;15.07;;;;;;;22.49;33.03;100923.34;4942566;29;20059;-79
2022/03/29 09:49:57;;;;;;;38.60;18.17;;;;;;;22.37;33.51;100927.03;4962706;28;20043;-79
2022/03/29 09:52:28;;;;;;;38.60;18.27;;;;;;;22.88;34.15;100928.84;4929980;29;20534;-79
2022/03/29 09:55:06;;;;;;;36.17;17.73;;;;;;;23.41;32.56;100919.94;4943333;28;20260;-79
2022/03/29 09:57:39;;;;;;;40.08;17.92;;;;;;;23.43;32.33;100916.94;4946103;29;20039;-79
2022/03/29 10:00:07;;;;;;;36.27;18.13;;;;;;;23.48;31.93;100922.50;4935230;29;20039;-79
2022/03/29 10:02:37;;;;;;;29.52;14.30;;;;;;;23.77;30.94;100925.00;4938385;29;20036;-80
2022/03/29 10:05:03;;;;;;;41.92;19.42;;;;;;;23.81;31.38;100924.22;4949170;28;20125;-80
2022/03/29 10:07:35;;;;;;;40.78;20.05;;;;;;;24.11;31.30;100920.94;4947396;28;20035;-80
2022/03/29 10:10:01;;;;;;;40.30;17.15;;;;;;;24.82;30.53;100908.75;4934132;29;20027;-80
2022/03/29 10:12:28;;;;;;;37.45;19.63;;;;;;;24.54;31.14;100902.56;4913558;29;20035;-79
2022/03/29 10:14:56;;;;;;;37.80;20.05;;;;;;;25.07;30.63;100901.75;4953417;28;20031;-79
2022/03/29 10:17:22;;;;;;;37.55;18.25;;;;;;;25.47;29.17;100903.81;4929312;29;20471;-80
2022/03/29 10:19:49;;;;;;;39.63;19.48;;;;;;;25.34;29.46;100902.41;4934285;29;20483;-80
2022/03/29 10:22:14;;;;;;;37.08;19.60;;;;;;;25.40;30.00;100903.25;4923445;29;20031;-80
2022/03/29 10:24:40;;;;;;;39.80;17.25;;;;;;;25.94;28.26;100902.00;4950190;28;20043;-79
2022/03/29 10:27:05;;;;;;;35.65;18.52;;;;;;;26.45;27.19;100897.25;4952444;29;20391;-80
2022/03/29 10:29:31;;;;;;;40.53;18.13;;;;;;;26.57;27.45;100899.75;4941539;29;20031;-80
2022/03/29 10:32:01;;;;;;;43.47;20.85;;;;;;;26.41;27.82;100898.94;4930595;29;20046;-80
2022/03/29 10:34:31;;;;;;;34.35;18.08;;;;;;;26.49;27.11;100898.34;4920609;29;20046;-80
2022/03/29 10:37:13;;;;;;;40.85;20.05;;;;;;;26.76;27.19;100897.22;4938677;29;20039;-80
2022/03/29 10:39:48;;;;;;;40.50;19.83;;;;;;;27.07;26.79;100892.41;4967189;28;20034;-79
2022/03/29 10:42:42;;;;;;;42.72;20.85;;;;;;;27.28;27.19;100889.56;4943996;29;20035;-79
2022/03/29 10:45:15;;;;;;;40.80;20.30;;;;;;;27.70;26.18;100893.72;4951307;29;20027;-79
2022/03/29 10:47:43;;;;;;;42.58;21.13;;;;;;;27.37;26.34;100883.16;4918807;29;20471;-80
2022/03/29 10:50:11;;;;;;;41.92;20.30;;;;;;;27.39;26.90;100889.22;4950698;29;20059;-80
2022/03/29 10:52:38;;;;;;;41.80;19.55;;;;;;;27.65;25.41;100877.16;4919290;29;20043;-79
2022/03/29 10:55:33;;;;;;;41.72;19.42;;;;;;;28.11;24.94;100882.38;4937217;29;20479;-79
2022/03/29 10:58:08;;;;;;;42.22;19.05;;;;;;;28.37;25.07;100878.25;4936857;29;20066;-80
2022/03/29 11:00:36;;;;;;;41.67;22.27;;;;;;;28.75;24.38;100867.31;4938984;29;20048;-79
2022/03/29 11:03:12;;;;;;;42.35;20.10;;;;;;;29.41;23.87;100870.34;4926592;29;20058;-79
2022/03/29 11:06:17;;;;;;;38.20;19.27;;;;;;;29.11;23.14;100875.22;4935537;29;20035;-79
2022/03/29 11:08:46;;;;;;;36.25;18.50;;;;;;;28.68;23.54;100859.38;4958580;28;20047;-79
2022/03/29 11:11:39;;;;;;;42.63;23.00;;;;;;;28.58;23.36;100865.03;4943406;29;20034;-79
2022/03/29 11:14:30;;;;;;;43.28;21.38;;;;;;;28.88;22.73;100858.31;4935765;29;20035;-80
2022/03/29 11:17:14;;;;;;;38.72;18.35;;;;;;;29.06;22.44;100858.66;4945455;29;20043;-80
2022/03/29 11:19:46;;;;;;;46.55;21.13;;;;;;;29.22;22.41;100823.28;4960198;28;20050;-79